createdAt,value
2018-07-16T00:00:30.353Z,74.50
2018-07-16T00:02:59.254Z,73.33
2018-07-16T00:05:28.164Z,73.02
2018-07-16T00:07:57.135Z,73.12
2018-07-16T00:10:26.102Z,73.06
2018-07-16T00:12:55.037Z,73.54
2018-07-16T00:15:23.965Z,73.52
2018-07-16T00:17:52.976Z,73.86
2018-07-16T00:20:22.146Z,74.33
2018-07-16T00:22:51.163Z,74.57
2018-07-16T00:25:20.077Z,73.15
2018-07-16T00:27:49.031Z,74.49
2018-07-16T00:30:17.989Z,74.13
2018-07-16T00:32:46.957Z,74.88
2018-07-16T00:35:15.895Z,74.60
2018-07-16T00:37:44.841Z,75.36
2018-07-16T00:40:13.798Z,74.08
2018-07-16T00:42:42.748Z,74.53
2018-07-16T00:45:11.645Z,74.96
2018-07-16T00:47:40.576Z,74.25
2018-07-16T00:50:09.636Z,74.11
2018-07-16T00:52:38.539Z,74.78
2018-07-16T00:55:07.479Z,75.92
2018-07-16T00:57:36.409Z,76.59
2018-07-16T01:00:05.408Z,76.77
2018-07-16T01:02:34.383Z,76.77
2018-07-16T01:05:03.360Z,76.75
2018-07-16T01:07:32.327Z,76.19
2018-07-16T01:10:01.277Z,76.83
2018-07-16T01:12:30.233Z,76.68
2018-07-16T01:14:59.213Z,77.52
2018-07-16T01:17:28.252Z,77.92
2018-07-16T01:19:57.211Z,77.42
2018-07-16T01:22:26.168Z,77.83
2018-07-16T01:24:55.075Z,79.24
2018-07-16T01:27:23.990Z,77.77
2018-07-16T01:29:52.915Z,78.76
2018-07-16T01:32:21.825Z,78.25
2018-07-16T01:34:50.761Z,79.78
2018-07-16T01:37:19.667Z,79.69
2018-07-16T01:39:48.634Z,79.62
2018-07-16T01:42:17.584Z,79.12
2018-07-16T01:44:46.517Z,80.09
2018-07-16T01:47:15.493Z,79.56
2018-07-16T01:49:44.428Z,80.41
2018-07-16T01:52:13.346Z,80.83
2018-07-16T01:54:42.336Z,80.96
2018-07-16T01:57:11.290Z,81.58
2018-07-16T01:59:40.230Z,81.29
2018-07-16T02:02:09.193Z,81.06
2018-07-16T02:04:38.262Z,81.97
2018-07-16T02:07:07.180Z,81.54
2018-07-16T02:09:36.112Z,82.12
2018-07-16T02:12:05.112Z,81.91
2018-07-16T02:14:34.033Z,82.68
2018-07-16T02:17:02.990Z,81.83
2018-07-16T02:19:31.936Z,82.83
2018-07-16T02:22:00.862Z,82.60
2018-07-16T02:24:29.813Z,83.28
2018-07-16T02:26:58.832Z,82.94
2018-07-16T02:29:27.744Z,83.11
2018-07-16T02:31:56.764Z,83.35
2018-07-16T02:34:25.704Z,83.35
2018-07-16T02:36:54.652Z,84.34
2018-07-16T02:39:23.605Z,83.54
2018-07-16T02:41:52.534Z,84.05
2018-07-16T02:44:21.458Z,84.04
2018-07-16T02:46:50.645Z,84.18
2018-07-16T02:49:19.691Z,84.70
2018-07-16T02:51:48.628Z,84.92
2018-07-16T02:54:17.556Z,84.63
2018-07-16T02:56:46.601Z,85.49
2018-07-16T02:59:15.575Z,85.03
2018-07-16T03:01:44.522Z,84.92
2018-07-16T03:04:13.439Z,85.01
2018-07-16T03:06:42.408Z,84.66
2018-07-16T03:09:11.344Z,83.86
2018-07-16T03:11:40.344Z,84.67
2018-07-16T03:14:09.269Z,84.64
2018-07-16T03:16:38.203Z,84.99
2018-07-16T03:19:07.168Z,84.47
2018-07-16T03:21:36.174Z,84.05
2018-07-16T03:24:05.152Z,83.76
2018-07-16T03:26:34.605Z,83.08
2018-07-16T03:29:03.602Z,84.12
2018-07-16T03:31:32.551Z,84.54
2018-07-16T03:34:01.511Z,84.84
2018-07-16T03:36:30.457Z,84.35
2018-07-16T03:38:59.414Z,83.59
2018-07-16T03:41:28.393Z,84.35
2018-07-16T03:43:57.483Z,83.60
2018-07-16T03:46:26.506Z,84.20
2018-07-16T03:48:55.536Z,83.83
2018-07-16T03:51:24.500Z,83.30
2018-07-16T03:53:53.492Z,83.32
2018-07-16T03:56:22.523Z,82.51
2018-07-16T03:58:51.584Z,82.47
2018-07-16T04:01:20.727Z,83.08
2018-07-16T04:03:49.741Z,82.51
2018-07-16T04:06:18.670Z,81.86
2018-07-16T04:08:47.772Z,80.27
2018-07-16T04:11:16.865Z,80.77
2018-07-16T04:13:45.887Z,81.26
2018-07-16T04:16:14.883Z,79.74
2018-07-16T04:18:43.804Z,78.94
2018-07-16T04:21:12.903Z,78.77
2018-07-16T04:23:41.883Z,78.39
2018-07-16T04:26:10.828Z,78.20
2018-07-16T04:28:39.770Z,77.53
2018-07-16T04:31:08.698Z,78.33
2018-07-16T04:33:37.625Z,78.51
2018-07-16T04:36:06.541Z,77.79
2018-07-16T04:38:35.487Z,78.11
2018-07-16T04:41:06.354Z,77.72
2018-07-16T04:43:48.598Z,78.14
2018-07-16T04:49:04.141Z,77.18
2018-07-16T04:51:34.535Z,76.60
2018-07-16T04:54:15.746Z,76.13
2018-07-16T04:56:50.884Z,76.63
2018-07-16T04:59:22.537Z,76.96
2018-07-16T05:01:57.796Z,76.64
2018-07-16T05:04:29.789Z,76.97
2018-07-16T05:07:12.611Z,76.26
2018-07-16T05:09:44.487Z,76.53
2018-07-16T05:12:15.205Z,76.47
2018-07-16T05:14:50.024Z,75.62
2018-07-16T05:17:24.196Z,74.61
2018-07-16T05:20:06.554Z,75.15
2018-07-16T05:22:44.038Z,74.56
2018-07-16T05:25:17.818Z,74.99
2018-07-16T05:27:52.060Z,74.47
2018-07-16T05:30:23.716Z,74.69
2018-07-16T05:32:57.740Z,74.15
2018-07-16T05:35:38.065Z,74.51
2018-07-16T05:38:12.889Z,73.56
2018-07-16T05:40:46.473Z,74.20
2018-07-16T05:43:19.154Z,73.94
2018-07-16T05:45:54.207Z,73.35
2018-07-16T05:48:26.937Z,71.81
2018-07-16T05:50:56.706Z,71.25
2018-07-16T05:53:32.234Z,70.13
2018-07-16T05:56:09.326Z,71.35
2018-07-16T05:58:46.461Z,70.22
2018-07-16T06:01:16.645Z,68.63
2018-07-16T06:03:52.212Z,67.97
2018-07-16T06:06:33.414Z,67.90
2018-07-16T06:09:07.420Z,65.97
2018-07-16T06:11:38.941Z,61.64
2018-07-16T06:14:15.488Z,56.41
2018-07-16T06:16:50.331Z,54.56
2018-07-16T06:19:26.210Z,49.89
2018-07-16T06:22:00.138Z,47.86
2018-07-16T06:24:32.766Z,47.02
2018-07-16T06:27:03.854Z,46.55
2018-07-16T06:29:41.248Z,44.49
2018-07-16T06:32:16.861Z,44.11
2018-07-16T06:34:51.095Z,41.14
2018-07-16T06:37:26.672Z,41.90
2018-07-16T06:40:00.322Z,41.48
2018-07-16T06:42:34.220Z,40.76
2018-07-16T06:45:13.505Z,40.91
2018-07-16T06:47:46.878Z,38.59
2018-07-16T06:50:18.699Z,41.00
2018-07-16T06:52:54.862Z,37.16
2018-07-16T06:55:31.118Z,37.55
2018-07-16T06:58:02.348Z,36.74
2018-07-16T07:00:34.391Z,37.65
2018-07-16T07:03:09.006Z,35.21
2018-07-16T07:05:48.760Z,35.24
2018-07-16T07:08:22.249Z,37.28
2018-07-16T07:10:53.785Z,37.61
2018-07-16T07:13:27.615Z,35.25
2018-07-16T07:16:06.330Z,33.85
2018-07-16T07:18:40.500Z,32.53
2018-07-16T07:21:09.609Z,32.95
2018-07-16T07:23:41.764Z,33.21
2018-07-16T07:26:15.465Z,32.98
2018-07-16T07:28:48.649Z,35.26
2018-07-16T07:31:18.063Z,37.27
2018-07-16T07:33:54.433Z,35.78
2018-07-16T07:36:28.034Z,34.30
2018-07-16T07:39:00.966Z,36.33
2018-07-16T07:41:36.521Z,35.21
2018-07-16T07:44:10.160Z,35.15
2018-07-16T07:46:45.455Z,36.09
2018-07-16T07:49:22.373Z,35.63
2018-07-16T07:51:53.801Z,36.06
2018-07-16T07:54:28.985Z,33.00
2018-07-16T07:57:03.431Z,35.14
2018-07-16T07:59:37.096Z,37.33
2018-07-16T08:02:08.036Z,34.89
2018-07-16T08:04:52.890Z,37.48
2018-07-16T08:07:27.719Z,34.05
2018-07-16T08:10:00.146Z,33.34
2018-07-16T08:12:37.430Z,34.97
2018-07-16T08:15:12.342Z,35.81
2018-07-16T08:17:47.352Z,33.50
2018-07-16T08:20:21.737Z,35.07
2018-07-16T08:22:53.939Z,35.04
2018-07-16T08:25:31.123Z,33.64
2018-07-16T08:28:08.995Z,36.10
2018-07-16T08:30:46.731Z,37.21
2018-07-16T08:33:23.466Z,33.48
2018-07-16T08:35:58.228Z,34.77
2018-07-16T08:38:33.464Z,30.68
2018-07-16T08:41:04.216Z,30.31
2018-07-16T08:43:39.750Z,32.40
2018-07-16T08:46:16.571Z,30.44
2018-07-16T08:48:47.041Z,32.18
2018-07-16T08:51:20.610Z,28.37
2018-07-16T08:53:54.680Z,31.13
2018-07-16T08:56:27.693Z,34.62
2018-07-16T08:59:01.557Z,32.64
2018-07-16T09:01:34.050Z,32.97
2018-07-16T09:04:09.232Z,29.26
2018-07-16T09:06:41.243Z,31.86
2018-07-16T09:11:56.573Z,31.03
2018-07-16T09:14:52.397Z,30.42
2018-07-16T09:17:26.613Z,31.97
2018-07-16T09:20:05.598Z,30.29
2018-07-16T09:22:38.546Z,29.02
2018-07-16T09:25:11.378Z,30.12
2018-07-16T09:27:43.393Z,28.09
2018-07-16T09:30:17.179Z,29.14
2018-07-16T09:32:49.996Z,31.14
2018-07-16T09:35:22.584Z,33.58
2018-07-16T09:38:01.280Z,33.28
2018-07-16T09:40:36.933Z,32.36
2018-07-16T09:43:12.974Z,28.85
2018-07-16T09:45:56.301Z,28.21
2018-07-16T09:48:32.977Z,29.72
2018-07-16T09:51:05.306Z,29.97
2018-07-16T09:53:39.734Z,31.03
2018-07-16T09:56:13.578Z,31.20
2018-07-16T09:58:45.709Z,28.26
2018-07-16T10:01:21.802Z,32.11
2018-07-16T10:04:03.303Z,31.53
2018-07-16T10:06:35.355Z,30.70
2018-07-16T10:09:15.847Z,30.79
2018-07-16T10:11:52.897Z,30.63
2018-07-16T10:14:21.795Z,33.71
2018-07-16T10:16:50.698Z,31.42
2018-07-16T10:19:19.627Z,30.50
2018-07-16T10:21:48.526Z,31.65
2018-07-16T10:24:17.418Z,31.29
2018-07-16T10:26:46.318Z,33.80
2018-07-16T10:29:15.213Z,29.07
2018-07-16T10:31:44.158Z,28.99
2018-07-16T10:34:13.086Z,27.65
2018-07-16T10:36:42.014Z,29.90
2018-07-16T10:39:10.918Z,28.51
2018-07-16T10:41:39.983Z,28.39
2018-07-16T10:44:08.897Z,29.37
2018-07-16T10:46:37.808Z,27.17
2018-07-16T10:49:06.704Z,27.91
2018-07-16T10:51:35.608Z,28.85
2018-07-16T10:54:04.584Z,27.65
2018-07-16T10:56:33.539Z,30.62
2018-07-16T10:59:02.577Z,31.25
2018-07-16T11:01:31.597Z,27.37
2018-07-16T11:04:00.569Z,27.76
2018-07-16T11:06:29.549Z,24.83
2018-07-16T11:08:58.521Z,28.59
2018-07-16T11:11:27.485Z,28.06
2018-07-16T11:13:56.411Z,28.43
2018-07-16T11:16:25.328Z,28.50
2018-07-16T11:18:54.308Z,28.21
2018-07-16T11:21:23.391Z,28.32
2018-07-16T11:23:52.301Z,24.94
2018-07-16T11:26:21.215Z,28.14
2018-07-16T11:28:50.153Z,26.26
2018-07-16T11:31:19.224Z,28.18
2018-07-16T11:33:48.207Z,25.58
2018-07-16T11:36:17.148Z,26.43
2018-07-16T11:38:46.063Z,25.25
2018-07-16T11:41:15.048Z,25.33
2018-07-16T11:43:43.972Z,28.34
2018-07-16T11:46:12.948Z,25.52
2018-07-16T11:48:41.832Z,25.94
2018-07-16T11:51:10.777Z,24.89
2018-07-16T11:53:39.680Z,28.01
2018-07-16T11:56:08.624Z,26.54
2018-07-16T11:58:37.566Z,28.20
2018-07-16T12:01:06.473Z,28.95
2018-07-16T12:03:35.395Z,26.72
2018-07-16T12:06:08.478Z,27.99
2018-07-16T12:08:37.430Z,25.54
2018-07-16T12:11:06.518Z,25.84
2018-07-16T12:13:35.432Z,24.48
2018-07-16T12:16:04.383Z,25.05
2018-07-16T12:18:33.348Z,25.15
2018-07-16T12:21:02.297Z,25.51
2018-07-16T12:23:31.212Z,24.88
2018-07-16T12:26:00.231Z,25.33
2018-07-16T12:28:29.460Z,23.55
2018-07-16T12:30:58.500Z,25.32
2018-07-16T12:33:27.511Z,25.46
2018-07-16T12:35:56.409Z,24.76
2018-07-16T12:38:25.331Z,25.25
2018-07-16T12:41:01.125Z,26.13
2018-07-16T12:43:30.037Z,27.23
2018-07-16T12:45:58.936Z,29.48
2018-07-16T12:48:27.855Z,28.33
2018-07-16T12:50:56.779Z,28.62
2018-07-16T12:53:25.667Z,27.71
2018-07-16T12:55:54.572Z,28.49
2018-07-16T12:58:23.512Z,29.27
2018-07-16T13:00:52.465Z,29.98
2018-07-16T13:03:21.381Z,28.50
2018-07-16T13:05:50.310Z,25.20
2018-07-16T13:08:19.252Z,27.83
2018-07-16T13:10:48.322Z,27.19
2018-07-16T13:13:17.245Z,27.42
2018-07-16T13:15:46.174Z,26.49
2018-07-16T13:18:15.098Z,24.95
2018-07-16T13:20:44.021Z,25.69
2018-07-16T13:23:12.947Z,25.88
2018-07-16T13:25:41.985Z,27.56
2018-07-16T13:28:10.905Z,25.90
2018-07-16T13:30:39.886Z,25.94
2018-07-16T13:33:08.833Z,25.30
2018-07-16T13:35:37.750Z,24.32
2018-07-16T13:38:06.709Z,26.58
2018-07-16T13:40:35.643Z,27.58
2018-07-16T13:43:04.655Z,27.93
2018-07-16T13:45:33.581Z,26.36
2018-07-16T13:48:02.560Z,27.26
2018-07-16T13:50:31.597Z,26.08
2018-07-16T13:53:00.673Z,24.65
2018-07-16T13:55:29.583Z,25.15
2018-07-16T13:57:58.496Z,25.57
2018-07-16T14:00:27.595Z,25.73
2018-07-16T14:02:56.609Z,26.46
2018-07-16T14:05:25.544Z,24.80
2018-07-16T14:07:54.480Z,24.71
2018-07-16T14:10:23.413Z,25.10
2018-07-16T14:12:52.484Z,25.62
2018-07-16T14:15:21.389Z,25.21
2018-07-16T14:17:50.320Z,24.61
2018-07-16T14:20:19.332Z,24.39
2018-07-16T14:22:48.313Z,27.37
2018-07-16T14:25:17.210Z,27.24
2018-07-16T14:27:46.143Z,25.87
2018-07-16T14:30:15.084Z,27.29
2018-07-16T14:32:44.099Z,26.43
2018-07-16T14:35:13.025Z,26.11
2018-07-16T14:37:41.931Z,25.94
2018-07-16T14:40:10.951Z,27.28
2018-07-16T14:42:39.753Z,26.38
2018-07-16T14:45:08.669Z,27.96
2018-07-16T14:47:37.934Z,27.55
2018-07-16T14:50:06.776Z,26.02
2018-07-16T14:52:35.851Z,26.46
2018-07-16T14:55:04.769Z,27.49
2018-07-16T14:57:33.701Z,26.38
2018-07-16T15:00:02.714Z,25.84
2018-07-16T15:02:31.710Z,27.83
2018-07-16T15:05:00.673Z,28.50
2018-07-16T15:07:29.787Z,28.68
2018-07-16T15:09:58.774Z,29.17
2018-07-16T15:12:27.728Z,27.38
2018-07-16T15:14:56.629Z,28.87
2018-07-16T15:17:25.631Z,27.94
2018-07-16T15:19:54.633Z,27.74
2018-07-16T15:22:23.537Z,29.31
2018-07-16T15:24:52.493Z,28.89
2018-07-16T15:27:21.472Z,28.67
2018-07-16T15:29:51.483Z,28.89
2018-07-16T15:32:20.422Z,29.56
2018-07-16T15:34:49.389Z,28.10
2018-07-16T15:37:18.340Z,27.68
2018-07-16T15:39:47.657Z,28.42
2018-07-16T15:42:16.571Z,29.00
2018-07-16T15:44:45.595Z,27.77
2018-07-16T15:47:14.516Z,28.47
2018-07-16T15:49:43.641Z,28.59
2018-07-16T15:52:12.620Z,28.27
2018-07-16T15:54:41.529Z,28.23
2018-07-16T15:57:10.512Z,30.00
2018-07-16T15:59:39.428Z,30.69
2018-07-16T16:02:08.320Z,30.50
2018-07-16T16:04:37.220Z,29.03
2018-07-16T16:07:07.860Z,31.06
2018-07-16T16:09:37.958Z,31.10
2018-07-16T16:12:07.239Z,32.85
2018-07-16T16:14:36.435Z,31.52
2018-07-16T16:17:06.133Z,33.94
2018-07-16T16:19:35.160Z,34.22
2018-07-16T16:22:04.087Z,35.21
2018-07-16T16:24:33.112Z,35.23
2018-07-16T16:27:02.081Z,35.12
2018-07-16T16:29:31.039Z,34.60
2018-07-16T16:31:59.941Z,36.04
2018-07-16T16:34:28.831Z,34.77
2018-07-16T16:36:57.737Z,36.03
2018-07-16T16:39:26.666Z,32.73
2018-07-16T16:41:55.735Z,33.57
2018-07-16T16:44:24.587Z,33.46
2018-07-16T16:46:53.757Z,33.42
2018-07-16T16:49:22.679Z,33.67
2018-07-16T16:51:51.885Z,32.41
2018-07-16T16:54:20.956Z,31.92
2018-07-16T16:56:49.908Z,32.99
2018-07-16T16:59:18.883Z,33.57
2018-07-16T17:01:47.791Z,33.43
2018-07-16T17:04:16.835Z,33.39
2018-07-16T17:06:45.747Z,33.58
2018-07-16T17:09:14.696Z,32.92
2018-07-16T17:11:43.652Z,34.64
2018-07-16T17:14:12.964Z,33.96
2018-07-16T17:16:41.904Z,34.00
2018-07-16T17:19:10.837Z,33.23
2018-07-16T17:21:39.772Z,34.58
2018-07-16T17:24:08.901Z,32.37
2018-07-16T17:26:37.840Z,33.88
2018-07-16T17:29:06.786Z,34.99
2018-07-16T17:31:35.728Z,35.34
2018-07-16T17:34:04.679Z,32.86
2018-07-16T17:36:33.668Z,34.56
2018-07-16T17:39:02.760Z,35.22
2018-07-16T17:41:31.752Z,34.43
2018-07-16T17:44:00.723Z,33.93
2018-07-16T17:46:29.693Z,34.72
2018-07-16T17:48:58.631Z,36.07
2018-07-16T17:51:27.614Z,36.09
2018-07-16T17:53:56.528Z,36.59
2018-07-16T17:56:25.485Z,36.29
2018-07-16T17:58:54.387Z,36.82
2018-07-16T18:01:26.965Z,38.25
2018-07-16T18:03:55.873Z,37.32
2018-07-16T18:06:24.830Z,37.97
2018-07-16T18:08:53.891Z,39.28
2018-07-16T18:11:22.852Z,38.35
2018-07-16T18:13:51.773Z,38.23
2018-07-16T18:16:20.702Z,40.24
2018-07-16T18:18:49.999Z,39.84
2018-07-16T18:21:18.948Z,40.37
2018-07-16T18:23:51.979Z,39.81
2018-07-16T18:26:21.888Z,39.77
2018-07-16T18:28:50.810Z,39.92
2018-07-16T18:31:19.763Z,41.36
2018-07-16T18:33:48.713Z,42.10
2018-07-16T18:36:17.625Z,41.33
2018-07-16T18:38:46.815Z,41.95
2018-07-16T18:41:15.748Z,42.66
2018-07-16T18:43:44.696Z,43.51
2018-07-16T18:46:13.621Z,44.12
2018-07-16T18:48:42.598Z,45.41
2018-07-16T18:51:11.549Z,44.21
2018-07-16T18:53:40.703Z,46.16
2018-07-16T18:56:09.747Z,45.36
2018-07-16T18:58:38.660Z,46.84
2018-07-16T19:01:07.597Z,47.61
2018-07-16T19:03:36.577Z,47.71
2018-07-16T19:06:05.537Z,49.24
2018-07-16T19:08:34.503Z,49.29
2018-07-16T19:11:03.583Z,48.36
2018-07-16T19:13:32.568Z,50.22
2018-07-16T19:16:01.643Z,49.31
2018-07-16T19:18:30.556Z,49.77
2018-07-16T19:20:59.561Z,50.53
2018-07-16T19:23:30.337Z,50.91
2018-07-16T19:25:59.393Z,50.67
2018-07-16T19:28:28.528Z,52.25
2018-07-16T19:30:57.474Z,51.57
2018-07-16T19:33:26.392Z,52.45
2018-07-16T19:35:55.294Z,52.85
2018-07-16T19:38:24.368Z,52.56
2018-07-16T19:40:54.150Z,52.61
2018-07-16T19:43:23.059Z,51.88
2018-07-16T19:45:51.955Z,52.93
2018-07-16T19:48:20.865Z,52.75
2018-07-16T19:50:50.085Z,52.06
2018-07-16T19:53:19.003Z,53.02
2018-07-16T19:55:47.906Z,53.64
2018-07-16T19:58:16.970Z,55.83
2018-07-16T20:00:46.079Z,55.89
2018-07-16T20:03:15.013Z,54.32
2018-07-16T20:05:44.060Z,54.88
2018-07-16T20:08:13.046Z,55.06
2018-07-16T20:10:41.942Z,54.24
2018-07-16T20:13:10.970Z,56.62
2018-07-16T20:15:40.083Z,56.36
2018-07-16T20:18:08.862Z,55.44
2018-07-16T20:20:51.345Z,54.97
2018-07-16T20:23:20.275Z,54.88
2018-07-16T20:25:49.733Z,55.38
2018-07-16T20:28:18.971Z,55.83
2018-07-16T20:30:48.756Z,56.80
2018-07-16T20:33:17.701Z,55.96
2018-07-16T20:35:46.942Z,56.09
2018-07-16T20:38:16.130Z,55.55
2018-07-16T20:40:45.532Z,55.24
2018-07-16T20:43:14.443Z,55.41
2018-07-16T20:45:43.418Z,55.84
2018-07-16T20:48:12.344Z,55.73
2018-07-16T20:50:41.257Z,58.00
2018-07-16T20:53:10.167Z,56.33
2018-07-16T20:55:39.205Z,57.14
2018-07-16T20:58:08.180Z,56.69
2018-07-16T21:00:37.096Z,57.22
2018-07-16T21:03:06.156Z,56.71
2018-07-16T21:05:35.061Z,55.87
2018-07-16T21:08:03.975Z,55.69
2018-07-16T21:10:32.958Z,57.08
2018-07-16T21:13:02.009Z,58.95
2018-07-16T21:15:30.973Z,58.89
2018-07-16T21:18:00.126Z,60.28
2018-07-16T21:20:29.058Z,60.22
2018-07-16T21:22:58.119Z,60.50
2018-07-16T21:25:27.028Z,61.35
2018-07-16T21:27:56.016Z,62.03
2018-07-16T21:30:24.977Z,61.62
2018-07-16T21:32:53.935Z,62.56
2018-07-16T21:35:22.945Z,62.54
2018-07-16T21:37:51.820Z,62.52
2018-07-16T21:40:20.882Z,62.03
2018-07-16T21:42:49.882Z,61.83
2018-07-16T21:45:18.924Z,63.40
2018-07-16T21:47:47.793Z,64.50
2018-07-16T21:50:16.691Z,63.05
2018-07-16T21:52:47.065Z,63.21
2018-07-16T21:55:16.890Z,62.86
2018-07-16T21:57:45.808Z,63.96
2018-07-16T22:00:22.352Z,63.87
2018-07-16T22:02:51.292Z,64.53
2018-07-16T22:05:20.237Z,64.22
2018-07-16T22:07:49.193Z,63.83
2018-07-16T22:10:18.136Z,64.39
2018-07-16T22:12:47.082Z,65.87
2018-07-16T22:15:32.831Z,64.57
2018-07-16T22:18:01.742Z,65.54
2018-07-16T22:20:30.753Z,64.94
2018-07-16T22:22:59.686Z,65.58
2018-07-16T22:25:28.592Z,65.21
2018-07-16T22:27:57.698Z,66.11
2018-07-16T22:30:26.606Z,65.93
2018-07-16T22:32:55.531Z,65.98
2018-07-16T22:35:24.480Z,64.60
2018-07-16T22:37:53.444Z,67.10
2018-07-16T22:40:22.472Z,66.25
2018-07-16T22:42:51.470Z,65.81
2018-07-16T22:45:20.491Z,66.02
2018-07-16T22:47:49.383Z,66.05
2018-07-16T22:50:18.419Z,67.64
2018-07-16T22:52:47.328Z,67.52
2018-07-16T22:55:16.243Z,67.23
2018-07-16T22:57:45.185Z,66.46
2018-07-16T23:00:14.173Z,66.24
2018-07-16T23:02:43.125Z,66.79
2018-07-16T23:05:12.030Z,65.93
2018-07-16T23:07:40.940Z,66.79
2018-07-16T23:10:09.865Z,65.91
2018-07-16T23:12:38.800Z,65.58
2018-07-16T23:15:07.767Z,67.31
2018-07-16T23:17:36.706Z,67.91
2018-07-16T23:20:05.702Z,66.59
2018-07-16T23:22:44.882Z,67.81
2018-07-16T23:25:13.768Z,67.47
2018-07-16T23:27:42.669Z,68.67
2018-07-16T23:30:12.460Z,67.22
2018-07-16T23:32:41.385Z,68.37
2018-07-16T23:35:10.432Z,69.67
2018-07-16T23:37:39.621Z,68.97
2018-07-16T23:40:08.728Z,68.83
2018-07-16T23:42:37.687Z,69.34
2018-07-16T23:45:06.612Z,69.79
2018-07-16T23:47:35.614Z,69.84
2018-07-16T23:50:04.589Z,69.45
2018-07-16T23:52:33.481Z,69.83
2018-07-16T23:55:02.421Z,70.91
2018-07-16T23:57:31.700Z,71.15
